Time;durP1;ratioP1;P1;durP2;ratioP2;P2;SDS_P1;SDS_P2;PMS_P1;PMS_P2;Temp;Humidity;BMP_temperature;BMP_pressure;BME280_temperature;BME280_humidity;BME280_pressure;Samples;Min_cycle;Max_cycle;Signal;HPM_P1;HPM_P2
2023/04/24 00:01:26;;;;;;;1.73;1.63;;;15.00;71.10;;;;;;5037685;28;20064;-81
2023/04/24 00:03:52;;;;;;;1.60;1.50;;;15.00;71.10;;;;;;5055119;28;20024;-80
2023/04/24 00:06:18;;;;;;;1.73;1.63;;;15.00;71.20;;;;;;5020375;28;20051;-81
2023/04/24 00:08:44;;;;;;;1.73;1.63;;;15.00;71.20;;;;;;5020068;28;20029;-81
2023/04/24 00:11:09;;;;;;;2.38;1.77;;;14.90;71.20;;;;;;5020380;28;20033;-82
2023/04/24 00:13:35;;;;;;;1.92;1.73;;;14.90;71.20;;;;;;5020241;28;20032;-81
2023/04/24 00:16:01;;;;;;;1.75;1.60;;;14.90;71.30;;;;;;5020500;28;20048;-84
2023/04/24 00:18:27;;;;;;;3.17;2.10;;;14.80;71.20;;;;;;5020871;28;20044;-81
2023/04/24 00:20:53;;;;;;;2.00;1.80;;;14.90;71.30;;;;;;5021312;28;20434;-81
2023/04/24 00:23:18;;;;;;;2.25;1.77;;;14.90;71.30;;;;;;5037465;28;20378;-81
2023/04/24 00:25:44;;;;;;;2.13;1.92;;;14.90;71.30;;;;;;5021760;28;20029;-82
2023/04/24 00:28:10;;;;;;;2.13;1.92;;;14.80;71.30;;;;;;5038269;28;20037;-83
2023/04/24 00:30:36;;;;;;;2.20;1.92;;;14.80;71.30;;;;;;5037655;28;20028;-81
2023/04/24 00:33:01;;;;;;;1.90;1.80;;;14.80;71.30;;;;;;5022497;28;20037;-81
2023/04/24 00:35:27;;;;;;;1.85;1.75;;;14.80;71.40;;;;;;5005809;28;20420;-83
2023/04/24 00:37:53;;;;;;;2.20;1.98;;;14.70;71.40;;;;;;5004835;28;20054;-81
2023/04/24 00:40:19;;;;;;;2.15;1.95;;;14.70;71.40;;;;;;5036208;28;20029;-82
2023/04/24 00:42:45;;;;;;;2.30;2.00;;;14.70;71.40;;;;;;5036408;28;20033;-80
2023/04/24 00:45:12;;;;;;;2.20;2.00;;;14.70;71.50;;;;;;5053529;28;20029;-81
2023/04/24 00:47:38;;;;;;;2.15;1.92;;;14.60;71.50;;;;;;5035948;28;20029;-81
2023/04/24 00:50:06;;;;;;;2.00;1.83;;;14.60;71.60;;;;;;5035509;28;20083;-80
2023/04/24 00:52:32;;;;;;;1.70;1.60;;;14.60;71.60;;;;;;5053217;28;20053;-81
2023/04/24 00:54:58;;;;;;;1.90;1.70;;;14.60;71.60;;;;;;5003456;28;20517;-81
2023/04/24 00:57:25;;;;;;;2.03;1.70;;;14.60;71.60;;;;;;5036746;28;20433;-81
2023/04/24 00:59:53;;;;;;;1.60;1.50;;;14.50;71.50;;;;;;5020594;28;20056;-81
2023/04/24 01:02:20;;;;;;;1.67;1.58;;;14.50;71.60;;;;;;5004776;28;20028;-82
2023/04/24 01:04:46;;;;;;;2.03;1.70;;;14.50;71.60;;;;;;5021685;28;20362;-82
2023/04/24 01:07:12;;;;;;;1.70;1.60;;;14.50;71.60;;;;;;5004752;28;20029;-82
2023/04/24 01:09:43;;;;;;;1.75;1.58;;;14.50;71.70;;;;;;5020841;28;20037;-82
2023/04/24 01:12:09;;;;;;;1.48;1.38;;;14.50;71.70;;;;;;5036912;28;20048;-82
2023/04/24 01:14:37;;;;;;;1.92;1.73;;;14.40;71.60;;;;;;5019675;28;20031;-81
2023/04/24 01:17:03;;;;;;;1.98;1.80;;;14.40;71.70;;;;;;5019285;28;20029;-82
2023/04/24 01:19:29;;;;;;;2.22;1.90;;;14.40;71.60;;;;;;5019458;28;20094;-84
2023/04/24 01:22:01;;;;;;;2.35;1.90;;;14.40;71.70;;;;;;5003807;28;20029;-82
2023/04/24 01:24:29;;;;;;;2.83;2.08;;;14.40;71.70;;;;;;5053735;28;20104;-81
2023/04/24 01:26:55;;;;;;;2.42;2.10;;;14.40;71.70;;;;;;5019161;28;20036;-83
2023/04/24 01:29:21;;;;;;;2.88;2.40;;;14.30;71.70;;;;;;5035100;28;20462;-81
2023/04/24 01:31:47;;;;;;;3.42;2.45;;;14.30;71.70;;;;;;5018927;28;20075;-82
2023/04/24 01:34:14;;;;;;;3.00;2.60;;;14.30;71.70;;;;;;5002701;28;20370;-82
2023/04/24 01:36:43;;;;;;;3.60;2.78;;;14.30;71.70;;;;;;5021727;28;20058;-81
2023/04/24 01:39:08;;;;;;;4.78;3.47;;;14.30;71.80;;;;;;5040126;28;20053;-82
2023/04/24 01:41:34;;;;;;;4.03;3.17;;;14.30;71.80;;;;;;5023596;28;20354;-82
2023/04/24 01:44:01;;;;;;;4.35;3.45;;;14.30;71.80;;;;;;5039295;28;20090;-84
2023/04/24 01:46:27;;;;;;;4.20;3.38;;;14.30;71.80;;;;;;5039331;28;20037;-81
2023/04/24 01:48:53;;;;;;;4.30;3.13;;;14.20;71.70;;;;;;5039307;28;20029;-81
2023/04/24 01:51:19;;;;;;;4.57;3.58;;;14.20;71.80;;;;;;5039260;28;20083;-81
2023/04/24 01:53:45;;;;;;;4.43;3.55;;;14.20;71.70;;;;;;5019436;28;20074;-81
2023/04/24 01:56:11;;;;;;;4.68;3.55;;;14.20;71.80;;;;;;5036878;28;20037;-83
2023/04/24 01:58:37;;;;;;;5.30;4.15;;;14.20;71.80;;;;;;5003843;28;20184;-81
2023/04/24 02:01:03;;;;;;;4.93;3.63;;;14.20;71.80;;;;;;5019164;28;20068;-81
2023/04/24 02:03:29;;;;;;;5.32;3.72;;;14.20;71.80;;;;;;5035462;28;20033;-81
2023/04/24 02:05:57;;;;;;;4.97;3.90;;;14.20;72.50;;;;;;5035472;28;20521;-84
2023/04/24 02:08:24;;;;;;;5.53;3.85;;;14.10;71.80;;;;;;5035977;28;20045;-82
2023/04/24 02:10:50;;;;;;;5.65;4.20;;;14.10;71.80;;;;;;5035381;28;20320;-81
2023/04/24 02:13:15;;;;;;;5.07;3.90;;;14.10;71.80;;;;;;5036545;28;20096;-81
2023/04/24 02:15:41;;;;;;;5.10;4.15;;;14.10;71.80;;;;;;5019465;28;20127;-80
2023/04/24 02:18:07;;;;;;;4.80;3.88;;;14.10;71.80;;;;;;5035378;28;20038;-81
2023/04/24 02:20:35;;;;;;;5.18;4.07;;;14.10;71.80;;;;;;5035188;28;20505;-81
2023/04/24 02:23:01;;;;;;;4.93;4.32;;;14.10;71.80;;;;;;5019855;28;20034;-80
2023/04/24 02:25:27;;;;;;;6.38;4.50;;;14.10;71.90;;;;;;5035415;28;20065;-83
2023/04/24 02:27:54;;;;;;;5.07;4.32;;;14.10;71.90;;;;;;5035163;28;20427;-82
2023/04/24 02:30:20;;;;;;;6.93;5.10;;;14.10;71.90;;;;;;5002562;28;20072;-80
2023/04/24 02:32:46;;;;;;;6.15;4.93;;;14.10;71.90;;;;;;5035795;28;20049;-80
2023/04/24 02:35:12;;;;;;;5.55;4.60;;;14.00;71.80;;;;;;5018645;28;20045;-80
2023/04/24 02:37:38;;;;;;;5.50;4.65;;;14.00;71.80;;;;;;5035277;28;20037;-81
2023/04/24 02:40:05;;;;;;;6.13;4.57;;;14.00;71.80;;;;;;5018727;28;20029;-81
2023/04/24 02:42:31;;;;;;;6.20;5.43;;;14.00;71.90;;;;;;5018727;28;20026;-81
2023/04/24 02:44:57;;;;;;;5.68;4.93;;;14.00;71.80;;;;;;5001944;28;20040;-80
2023/04/24 02:47:23;;;;;;;5.88;4.95;;;14.00;71.90;;;;;;5017897;28;20069;-80
2023/04/24 02:49:49;;;;;;;5.80;5.00;;;14.00;71.90;;;;;;5018492;28;20061;-81
2023/04/24 02:52:15;;;;;;;6.05;4.88;;;14.00;71.90;;;;;;5001664;28;20069;-81
2023/04/24 02:54:41;;;;;;;5.88;4.95;;;14.00;71.90;;;;;;5018240;28;20037;-80
2023/04/24 02:57:06;;;;;;;6.35;5.28;;;13.90;71.90;;;;;;5002537;28;20087;-81
2023/04/24 02:59:33;;;;;;;6.15;5.10;;;14.00;71.90;;;;;;5018040;28;20496;-80
2023/04/24 03:01:59;;;;;;;6.43;5.40;;;13.90;71.90;;;;;;5034991;28;20017;-82
2023/04/24 03:04:26;;;;;;;6.22;5.22;;;13.90;71.90;;;;;;5017965;28;20124;-81
2023/04/24 03:06:54;;;;;;;6.43;5.38;;;13.90;72.00;;;;;;5034497;28;20033;-80
2023/04/24 03:09:23;;;;;;;7.10;5.60;;;13.90;72.60;;;;;;5018137;28;20029;-84
2023/04/24 03:11:49;;;;;;;6.38;5.63;;;13.90;72.00;;;;;;5001737;28;20037;-82
2023/04/24 03:14:16;;;;;;;6.47;5.50;;;13.90;72.60;;;;;;5034228;28;20029;-87
2023/04/24 03:16:42;;;;;;;6.68;5.50;;;13.90;71.90;;;;;;5039420;28;20026;-82
2023/04/24 03:19:08;;;;;;;6.35;5.40;;;13.90;72.00;;;;;;5042335;28;20025;-84
2023/04/24 03:21:41;;;;;;;6.53;5.53;;;13.90;72.00;;;;;;5048607;28;20036;-82
2023/04/24 03:24:08;;;;;;;7.03;5.55;;;13.90;72.00;;;;;;5009656;28;20025;-82
2023/04/24 03:26:34;;;;;;;6.88;5.13;;;13.90;72.00;;;;;;5021774;28;20033;-81
2023/04/24 03:29:14;;;;;;;6.68;5.28;;;13.80;72.00;;;;;;5010864;28;20478;-82
2023/04/24 03:31:40;;;;;;;6.32;5.22;;;13.80;72.00;;;;;;5019138;28;20044;-83
2023/04/24 03:34:06;;;;;;;6.53;5.05;;;13.80;72.00;;;;;;5001078;28;20402;-81
2023/04/24 03:36:34;;;;;;;6.15;4.93;;;13.80;72.00;;;;;;5002061;28;20069;-82
2023/04/24 03:39:00;;;;;;;5.50;4.53;;;13.80;72.00;;;;;;5000989;28;20497;-81
2023/04/24 03:41:32;;;;;;;7.20;5.82;;;13.80;72.00;;;;;;5002973;28;20037;-81
2023/04/24 03:44:04;;;;;;;6.70;5.72;;;13.80;72.00;;;;;;5034076;28;20090;-82
2023/04/24 03:46:30;;;;;;;6.32;5.50;;;13.80;72.00;;;;;;5034448;28;20037;-83
2023/04/24 03:48:58;;;;;;;6.38;5.60;;;13.80;72.00;;;;;;5017409;28;20029;-81
2023/04/24 03:51:31;;;;;;;6.22;5.32;;;13.80;72.10;;;;;;5002941;28;20026;-82
2023/04/24 03:54:04;;;;;;;;;;;13.80;72.10;;;;;;5007056;28;20187;-82
2023/04/24 03:56:31;;;;;;;5.68;4.63;;;13.70;71.90;;;;;;5037371;28;19912;-82
2023/04/24 03:58:57;;;;;;;6.60;5.07;;;13.70;71.90;;;;;;5004093;28;20025;-80
2023/04/24 04:01:23;;;;;;;6.60;5.70;;;13.70;72.00;;;;;;5004427;28;20033;-84
2023/04/24 04:04:00;;;;;;;8.13;6.72;;;13.70;72.00;;;;;;5036833;28;20166;-80
2023/04/24 04:06:27;;;;;;;7.35;6.30;;;13.70;72.00;;;;;;5020467;28;20041;-80
2023/04/24 04:08:54;;;;;;;6.95;6.07;;;13.70;72.10;;;;;;5020427;28;20112;-83
2023/04/24 04:11:20;;;;;;;7.07;5.85;;;13.70;72.10;;;;;;5020294;28;20119;-82
2023/04/24 04:13:47;;;;;;;7.45;6.60;;;13.70;72.10;;;;;;5004035;28;20033;-81
2023/04/24 04:16:17;;;;;;;7.57;6.57;;;13.70;72.20;;;;;;5004594;28;20448;-80
2023/04/24 04:18:45;;;;;;;7.85;6.30;;;13.60;72.10;;;;;;5020766;28;20079;-80
2023/04/24 04:21:11;;;;;;;8.30;7.13;;;13.60;72.10;;;;;;5020020;28;20021;-81
2023/04/24 04:23:37;;;;;;;8.60;7.25;;;13.60;72.10;;;;;;5003691;28;20136;-80
2023/04/24 04:26:35;;;;;;;7.45;6.55;;;13.60;72.10;;;;;;5030266;28;20037;-83
2023/04/24 04:29:06;;;;;;;7.90;7.00;;;13.60;72.10;;;;;;5021788;28;20036;-82
2023/04/24 04:31:35;;;;;;;7.50;6.22;;;13.60;72.20;;;;;;4988748;28;20091;-81
2023/04/24 04:34:07;;;;;;;8.38;7.03;;;13.60;72.20;;;;;;5021174;28;20438;-82
2023/04/24 04:36:36;;;;;;;8.27;7.22;;;13.60;72.20;;;;;;5019406;28;20055;-83
2023/04/24 04:39:09;;;;;;;8.90;7.43;;;13.50;72.20;;;;;;5006148;28;20064;-82
2023/04/24 04:41:55;;;;;;;7.43;6.63;;;13.60;72.30;;;;;;5023249;28;20121;-82
2023/04/24 04:44:27;;;;;;;7.93;7.03;;;13.60;72.20;;;;;;5004505;28;20064;-81
2023/04/24 04:46:56;;;;;;;7.80;6.53;;;13.60;72.30;;;;;;5036147;28;20064;-83
2023/04/24 04:49:28;;;;;;;7.65;6.57;;;13.50;72.20;;;;;;5036570;28;20029;-83
2023/04/24 04:51:54;;;;;;;8.30;7.28;;;13.50;72.20;;;;;;5020027;28;20056;-84
2023/04/24 04:54:22;;;;;;;7.80;7.00;;;13.50;72.20;;;;;;5003933;28;20035;-85
2023/04/24 04:56:50;;;;;;;8.10;6.85;;;13.50;72.30;;;;;;5020917;28;20036;-85
2023/04/24 04:59:16;;;;;;;7.68;6.80;;;13.50;72.30;;;;;;5009275;28;20025;-87
2023/04/24 05:01:42;;;;;;;7.93;7.13;;;13.50;72.30;;;;;;5020926;28;20017;-85
2023/04/24 05:04:09;;;;;;;8.20;7.40;;;13.50;72.30;;;;;;5020006;28;20036;-85
2023/04/24 05:06:36;;;;;;;8.73;7.70;;;13.50;72.30;;;;;;5003875;28;20043;-85
2023/04/24 05:09:04;;;;;;;7.80;6.90;;;13.50;72.30;;;;;;5019782;28;20039;-84
2023/04/24 05:11:47;;;;;;;8.27;7.15;;;13.50;72.30;;;;;;5022538;28;20021;-87
2023/04/24 05:14:13;;;;;;;7.75;6.95;;;13.50;72.30;;;;;;5003702;28;20029;-85
2023/04/24 05:16:40;;;;;;;7.57;6.40;;;13.50;72.30;;;;;;5037130;28;20040;-86
2023/04/24 05:19:07;;;;;;;7.95;6.53;;;13.50;72.30;;;;;;5019636;28;20457;-86
2023/04/24 05:21:39;;;;;;;7.95;7.07;;;13.50;73.00;;;;;;5004136;28;20033;-82
2023/04/24 05:24:05;;;;;;;8.73;7.15;;;13.40;72.30;;;;;;5002274;28;20057;-83
2023/04/24 05:26:51;;;;;;;7.45;6.65;;;13.40;72.30;;;;;;5051566;28;20063;-83
2023/04/24 05:29:22;;;;;;;7.07;6.38;;;13.40;72.30;;;;;;5019704;28;20025;-88
2023/04/24 05:31:48;;;;;;;7.80;6.40;;;13.40;72.30;;;;;;5035423;28;20037;-82
2023/04/24 05:34:15;;;;;;;7.45;6.63;;;13.40;72.30;;;;;;5019122;28;20029;-85
2023/04/24 05:36:43;;;;;;;6.88;5.78;;;13.40;72.40;;;;;;5035381;28;20431;-82
2023/04/24 05:39:09;;;;;;;6.82;6.05;;;13.40;72.40;;;;;;5002847;28;20025;-82
2023/04/24 05:41:35;;;;;;;8.23;7.25;;;13.30;72.30;;;;;;5018525;28;20528;-81
2023/04/24 05:44:01;;;;;;;7.68;6.57;;;13.30;72.30;;;;;;5019082;28;20052;-82
2023/04/24 05:46:27;;;;;;;7.68;6.72;;;13.30;72.30;;;;;;5002912;28;20469;-81
2023/04/24 05:48:52;;;;;;;7.05;6.35;;;13.40;72.40;;;;;;5035124;28;20473;-81
2023/04/24 05:51:18;;;;;;;6.88;5.93;;;13.30;72.40;;;;;;5002404;28;20035;-82
2023/04/24 05:53:44;;;;;;;7.50;6.65;;;13.30;72.60;;;;;;5018508;28;20056;-81
2023/04/24 05:56:11;;;;;;;6.93;6.20;;;13.30;72.40;;;;;;5002685;28;20426;-82
2023/04/24 05:58:37;;;;;;;7.00;6.18;;;13.30;72.50;;;;;;5035335;28;20339;-81
2023/04/24 06:01:04;;;;;;;6.70;5.90;;;13.30;72.40;;;;;;5035987;28;20040;-82
2023/04/24 06:03:30;;;;;;;7.80;5.97;;;13.30;72.40;;;;;;5018700;28;20508;-82
2023/04/24 06:05:56;;;;;;;6.30;5.60;;;13.30;72.50;;;;;;5035032;28;20044;-80
2023/04/24 06:08:25;;;;;;;6.65;5.80;;;13.30;72.50;;;;;;5018569;28;20029;-87
2023/04/24 06:10:51;;;;;;;7.07;6.07;;;13.30;72.50;;;;;;5002733;28;20091;-82
2023/04/24 06:13:19;;;;;;;6.38;5.50;;;13.30;72.60;;;;;;5003084;28;20031;-83
2023/04/24 06:16:08;;;;;;;6.47;5.45;;;13.30;72.60;;;;;;5024317;28;20355;-82
2023/04/24 06:18:37;;;;;;;6.25;5.40;;;13.30;72.60;;;;;;5003840;28;20033;-82
2023/04/24 06:21:05;;;;;;;7.82;5.78;;;13.30;72.60;;;;;;5018440;28;20082;-85
2023/04/24 06:23:32;;;;;;;5.68;4.97;;;13.30;73.30;;;;;;5006090;28;20033;-82
2023/04/24 06:25:58;;;;;;;7.47;5.55;;;13.20;72.50;;;;;;5039179;28;20029;-82
2023/04/24 06:28:24;;;;;;;6.78;5.45;;;13.20;72.60;;;;;;5038476;28;20036;-82
2023/04/24 06:30:51;;;;;;;6.63;5.30;;;13.20;72.60;;;;;;5022571;28;20029;-84
2023/04/24 06:33:17;;;;;;;6.15;5.13;;;13.20;72.60;;;;;;5022836;28;20032;-85
2023/04/24 06:35:43;;;;;;;7.13;5.75;;;13.20;72.60;;;;;;5021794;28;20021;-81
2023/04/24 06:38:09;;;;;;;6.47;5.07;;;13.20;72.60;;;;;;5038944;28;20021;-81
2023/04/24 06:40:35;;;;;;;6.07;5.28;;;13.20;72.60;;;;;;5039435;28;20075;-82
2023/04/24 06:43:02;;;;;;;6.72;5.53;;;13.20;72.60;;;;;;5022095;28;20078;-81
2023/04/24 06:45:29;;;;;;;6.32;5.28;;;13.20;72.60;;;;;;5021811;28;20029;-82
2023/04/24 06:47:56;;;;;;;6.43;5.15;;;13.20;72.60;;;;;;5038284;28;20035;-89
2023/04/24 06:50:22;;;;;;;6.32;4.93;;;13.20;72.60;;;;;;5021288;28;20036;-81
2023/04/24 06:52:48;;;;;;;5.90;4.88;;;13.20;72.60;;;;;;5021441;28;20041;-81
2023/04/24 06:55:15;;;;;;;6.18;4.90;;;13.20;72.70;;;;;;5021513;28;20032;-81
2023/04/24 06:57:41;;;;;;;5.35;4.68;;;13.20;72.70;;;;;;5055588;28;20119;-84
2023/04/24 07:00:09;;;;;;;5.97;5.05;;;13.20;72.70;;;;;;5038256;28;20457;-87
2023/04/24 07:02:35;;;;;;;5.85;4.55;;;13.20;72.70;;;;;;5022071;28;20033;-81
2023/04/24 07:05:01;;;;;;;5.35;4.60;;;13.20;72.70;;;;;;5037654;28;20040;-81
2023/04/24 07:07:27;;;;;;;5.50;4.55;;;13.30;72.70;;;;;;5038730;28;20438;-82
2023/04/24 07:09:54;;;;;;;5.30;4.38;;;13.30;72.80;;;;;;5021749;28;20147;-83
2023/04/24 07:12:21;;;;;;;5.07;4.10;;;13.30;72.80;;;;;;5021071;28;20029;-82
2023/04/24 07:14:47;;;;;;;5.07;4.20;;;13.30;72.80;;;;;;5021398;28;20037;-82
2023/04/24 07:17:14;;;;;;;4.93;3.95;;;13.30;72.80;;;;;;5021396;28;20033;-86
2023/04/24 07:19:40;;;;;;;5.05;3.75;;;13.30;72.80;;;;;;5037676;28;20055;-82
2023/04/24 07:22:06;;;;;;;4.93;3.80;;;13.30;72.80;;;;;;5038631;28;20025;-81
2023/04/24 07:24:32;;;;;;;4.72;3.78;;;13.30;72.90;;;;;;5037676;28;20033;-86
2023/04/24 07:26:59;;;;;;;4.43;3.60;;;13.30;72.90;;;;;;5022572;28;20112;-83
2023/04/24 07:29:25;;;;;;;4.15;3.17;;;13.30;72.90;;;;;;5055598;28;20025;-85
2023/04/24 07:31:51;;;;;;;4.50;3.25;;;13.30;72.90;;;;;;5022036;28;20453;-84
2023/04/24 07:34:17;;;;;;;4.10;3.20;;;13.30;72.90;;;;;;5003556;28;20029;-85
2023/04/24 07:36:42;;;;;;;3.55;2.80;;;13.30;72.90;;;;;;5020874;28;20032;-86
2023/04/24 07:39:09;;;;;;;3.80;3.00;;;13.30;72.90;;;;;;5021202;28;20036;-85
2023/04/24 07:41:34;;;;;;;4.32;2.72;;;13.30;72.90;;;;;;5021690;28;20036;-83
2023/04/24 07:44:00;;;;;;;3.22;2.50;;;13.30;72.90;;;;;;5020739;28;20108;-84
2023/04/24 07:46:29;;;;;;;3.20;2.40;;;13.30;72.90;;;;;;5036883;28;20033;-83
2023/04/24 07:48:55;;;;;;;3.58;2.72;;;13.30;72.90;;;;;;5020905;28;20029;-83
2023/04/24 07:51:21;;;;;;;2.42;2.08;;;13.30;72.90;;;;;;5021032;28;20033;-82
2023/04/24 07:53:47;;;;;;;2.83;2.10;;;13.30;72.90;;;;;;5055272;28;20127;-83
2023/04/24 07:56:13;;;;;;;2.42;2.05;;;13.30;73.00;;;;;;5004676;28;20102;-83
2023/04/24 07:58:39;;;;;;;2.85;2.10;;;13.30;72.90;;;;;;5020784;28;20480;-84
2023/04/24 08:01:05;;;;;;;2.78;2.20;;;13.30;72.90;;;;;;5037328;28;20043;-83
2023/04/24 08:03:34;;;;;;;2.88;2.28;;;13.30;72.90;;;;;;5037489;28;20456;-85
2023/04/24 08:06:00;;;;;;;3.42;2.35;;;13.30;72.90;;;;;;5021418;28;20120;-83
2023/04/24 08:08:26;;;;;;;2.97;2.38;;;13.30;72.80;;;;;;5020748;28;20032;-84
2023/04/24 08:10:51;;;;;;;2.55;2.13;;;13.30;72.80;;;;;;5037880;28;20024;-85
2023/04/24 08:13:17;;;;;;;3.88;2.60;;;13.30;72.90;;;;;;5043055;28;20028;-85
2023/04/24 08:15:45;;;;;;;3.28;2.47;;;13.30;72.80;;;;;;5048307;28;20119;-83
2023/04/24 08:18:12;;;;;;;3.28;2.38;;;13.30;72.80;;;;;;5051030;28;20044;-85
2023/04/24 08:20:40;;;;;;;3.22;2.47;;;13.30;72.90;;;;;;5046470;28;20032;-83
2023/04/24 08:23:06;;;;;;;3.88;2.70;;;13.30;72.90;;;;;;5047795;28;20033;-83
2023/04/24 08:25:32;;;;;;;3.25;2.60;;;13.30;72.80;;;;;;5044397;28;20063;-83
2023/04/24 08:27:58;;;;;;;3.25;2.47;;;13.30;72.80;;;;;;5022249;28;20032;-83
2023/04/24 08:30:23;;;;;;;3.58;2.65;;;13.30;72.90;;;;;;5020519;28;20041;-83
2023/04/24 08:32:49;;;;;;;3.35;2.58;;;13.30;72.90;;;;;;5004522;28;20040;-84
2023/04/24 08:35:15;;;;;;;3.03;2.65;;;13.30;72.80;;;;;;5054843;28;20033;-82
2023/04/24 08:37:41;;;;;;;3.40;2.67;;;13.20;72.80;;;;;;5005066;28;20083;-84
2023/04/24 08:40:16;;;;;;;4.45;3.05;;;13.20;72.80;;;;;;5036892;28;20140;-83
2023/04/24 08:42:45;;;;;;;4.38;2.85;;;13.20;72.80;;;;;;5055009;28;20047;-84
2023/04/24 08:45:12;;;;;;;3.38;2.55;;;13.20;72.90;;;;;;5036283;28;20037;-83
2023/04/24 08:47:39;;;;;;;4.43;3.08;;;13.20;72.90;;;;;;5020594;28;20048;-83
2023/04/24 08:50:07;;;;;;;3.53;2.70;;;13.20;72.90;;;;;;5036613;28;20025;-83
2023/04/24 08:52:34;;;;;;;3.90;2.78;;;13.20;72.90;;;;;;5036621;28;20104;-85
2023/04/24 08:55:01;;;;;;;4.18;3.22;;;13.20;72.90;;;;;;5036698;28;20163;-86
2023/04/24 08:57:27;;;;;;;4.28;3.00;;;13.20;72.90;;;;;;5037249;28;20413;-85
2023/04/24 08:59:54;;;;;;;3.83;2.88;;;13.10;72.90;;;;;;5053895;28;20029;-86
2023/04/24 09:02:24;;;;;;;3.70;2.95;;;13.10;72.90;;;;;;5020161;28;20017;-85
2023/04/24 09:04:50;;;;;;;3.65;2.80;;;13.10;73.00;;;;;;5054209;28;20041;-85
2023/04/24 09:07:19;;;;;;;4.65;3.33;;;13.10;73.00;;;;;;5036030;28;20083;-86
2023/04/24 09:09:45;;;;;;;4.15;3.00;;;13.10;73.00;;;;;;5036719;28;20125;-84
2023/04/24 09:12:12;;;;;;;3.10;2.60;;;13.10;72.90;;;;;;5019741;28;20451;-84
2023/04/24 09:14:44;;;;;;;3.85;2.65;;;13.10;73.00;;;;;;5020432;28;20451;-83
2023/04/24 09:17:11;;;;;;;4.00;2.40;;;13.10;73.00;;;;;;5004778;28;20025;-85
2023/04/24 09:19:37;;;;;;;4.03;2.42;;;13.10;72.90;;;;;;5003622;28;20450;-85
2023/04/24 09:22:07;;;;;;;3.75;2.55;;;13.10;73.60;;;;;;5020099;28;20078;-84
2023/04/24 09:24:34;;;;;;;3.55;2.25;;;13.10;73.00;;;;;;5003657;28;20036;-85
2023/04/24 09:27:01;;;;;;;3.58;2.22;;;13.10;73.00;;;;;;5021001;28;20450;-84
2023/04/24 09:29:28;;;;;;;2.75;2.25;;;13.10;73.00;;;;;;5003492;28;20025;-86
2023/04/24 09:31:54;;;;;;;2.90;2.15;;;13.10;73.00;;;;;;5020507;28;20063;-85
2023/04/24 09:34:27;;;;;;;3.95;2.70;;;13.10;73.10;;;;;;5036999;28;20025;-87
2023/04/24 09:36:54;;;;;;;2.92;2.35;;;13.10;73.10;;;;;;5036385;28;20025;-85
2023/04/24 09:39:20;;;;;;;2.88;2.30;;;13.00;73.00;;;;;;5004135;28;20056;-85
2023/04/24 09:41:53;;;;;;;3.17;2.30;;;13.00;73.00;;;;;;5036673;28;20029;-85
2023/04/24 09:44:24;;;;;;;3.45;2.40;;;13.10;73.10;;;;;;5036361;28;20484;-84
2023/04/24 09:47:00;;;;;;;3.50;2.25;;;13.10;73.10;;;;;;5054531;28;20029;-84
2023/04/24 09:49:30;;;;;;;2.97;1.92;;;13.10;73.10;;;;;;5036026;28;20155;-85
2023/04/24 09:52:07;;;;;;;2.13;1.85;;;13.10;73.10;;;;;;5036146;28;20078;-85
2023/04/24 09:54:33;;;;;;;4.88;2.20;;;13.10;73.10;;;;;;5019320;28;20123;-85
2023/04/24 09:57:00;;;;;;;4.05;2.05;;;13.10;73.00;;;;;;5020636;28;20126;-85
2023/04/24 09:59:26;;;;;;;2.83;1.92;;;13.10;73.00;;;;;;5039651;28;20029;-85
2023/04/24 10:01:55;;;;;;;2.55;1.92;;;13.10;73.00;;;;;;5039747;28;20075;-84
2023/04/24 10:04:26;;;;;;;3.13;1.98;;;13.10;73.10;;;;;;5022729;28;20033;-84
2023/04/24 10:06:54;;;;;;;2.15;1.70;;;13.10;73.10;;;;;;5057203;28;20040;-84
2023/04/24 10:09:21;;;;;;;2.65;1.60;;;13.10;73.10;;;;;;5023223;28;20060;-84
2023/04/24 10:11:49;;;;;;;3.75;1.98;;;13.10;73.10;;;;;;5023025;28;20063;-86
2023/04/24 10:14:23;;;;;;;2.95;1.85;;;13.10;73.00;;;;;;5039921;28;20029;-85
2023/04/24 10:16:50;;;;;;;2.63;1.92;;;13.10;73.10;;;;;;5040068;28;20036;-84
2023/04/24 10:19:18;;;;;;;3.00;1.73;;;13.10;73.00;;;;;;5023079;28;20103;-84
2023/04/24 10:21:48;;;;;;;2.35;1.80;;;13.10;73.00;;;;;;5023494;28;20051;-83
2023/04/24 10:24:15;;;;;;;3.22;1.63;;;13.20;73.10;;;;;;5006855;28;20036;-83
2023/04/24 10:26:45;;;;;;;2.38;1.73;;;13.20;73.00;;;;;;5056842;28;20033;-83
2023/04/24 10:29:12;;;;;;;2.80;1.90;;;13.20;73.00;;;;;;5057137;28;20028;-86
2023/04/24 10:31:39;;;;;;;3.05;1.70;;;13.20;73.00;;;;;;5022971;28;20134;-84
2023/04/24 10:34:07;;;;;;;2.83;1.67;;;13.20;73.00;;;;;;5057060;28;20032;-84
2023/04/24 10:36:39;;;;;;;2.58;2.00;;;13.30;73.00;;;;;;5023205;28;20078;-85
2023/04/24 10:39:14;;;;;;;2.30;1.80;;;13.30;73.00;;;;;;5027535;28;20033;-84
2023/04/24 10:41:40;;;;;;;3.08;1.90;;;13.30;73.00;;;;;;5062283;28;20032;-84
2023/04/24 10:44:06;;;;;;;2.80;1.80;;;13.30;72.90;;;;;;5042872;28;20055;-83
2023/04/24 10:46:32;;;;;;;3.45;1.67;;;13.40;72.90;;;;;;5023178;28;20496;-82
2023/04/24 10:48:58;;;;;;;4.57;1.98;;;13.40;72.90;;;;;;5038757;28;20051;-84
2023/04/24 10:51:44;;;;;;;3.03;1.58;;;13.40;72.80;;;;;;5022342;28;20039;-82
2023/04/24 10:54:41;;;;;;;3.03;2.03;;;13.40;72.80;;;;;;5038506;28;20508;-84
2023/04/24 10:57:30;;;;;;;2.35;1.67;;;13.50;72.80;;;;;;5038346;28;20032;-85
2023/04/24 11:00:25;;;;;;;2.53;1.77;;;13.50;72.70;;;;;;5039035;28;20029;-85
2023/04/24 11:02:53;;;;;;;1.52;1.40;;;13.50;72.70;;;;;;5039010;28;20024;-84
2023/04/24 11:05:20;;;;;;;2.47;1.73;;;13.50;72.50;;;;;;5022112;28;20060;-83
2023/04/24 11:08:16;;;;;;;3.42;2.25;;;13.50;72.50;;;;;;5022032;28;20040;-85
2023/04/24 11:10:46;;;;;;;2.88;1.92;;;13.60;72.60;;;;;;5023299;28;20025;-89
2023/04/24 11:13:22;;;;;;;1.77;1.48;;;13.60;72.50;;;;;;5039323;28;20076;-83
2023/04/24 11:16:21;;;;;;;3.35;1.77;;;13.60;72.50;;;;;;5038166;28;20112;-85
2023/04/24 11:18:54;;;;;;;2.70;1.50;;;13.60;72.40;;;;;;5038890;28;20025;-87
2023/04/24 11:21:20;;;;;;;3.15;2.05;;;13.70;72.30;;;;;;5038626;28;20090;-85
2023/04/24 11:23:46;;;;;;;3.13;1.73;;;13.70;72.30;;;;;;5021633;28;20028;-85
2023/04/24 11:26:24;;;;;;;2.13;1.60;;;13.70;72.30;;;;;;5021363;28;20446;-88
2023/04/24 11:28:50;;;;;;;3.33;1.73;;;13.70;72.30;;;;;;5006046;28;20030;-82
2023/04/24 11:31:49;;;;;;;3.30;1.40;;;13.70;72.20;;;;;;5004752;28;20353;-81
2023/04/24 11:34:16;;;;;;;2.47;1.50;;;13.70;72.30;;;;;;5037418;28;20474;-82
2023/04/24 11:36:46;;;;;;;1.60;1.30;;;13.80;72.20;;;;;;5004788;28;20499;-84
2023/04/24 11:39:13;;;;;;;2.55;1.42;;;13.80;72.30;;;;;;5037650;28;20033;-86
2023/04/24 11:41:39;;;;;;;1.30;1.20;;;13.80;72.30;;;;;;5037678;28;20066;-83
2023/04/24 11:44:10;;;;;;;2.28;1.48;;;13.80;72.20;;;;;;5021082;28;20069;-84
2023/04/24 11:46:37;;;;;;;1.95;1.30;;;13.80;72.20;;;;;;5004974;28;20055;-85
2023/04/24 11:49:03;;;;;;;1.80;1.20;;;13.80;72.10;;;;;;5006026;28;20033;-85
2023/04/24 11:51:29;;;;;;;2.47;1.38;;;13.90;72.20;;;;;;5021082;28;20386;-84
2023/04/24 11:53:56;;;;;;;1.70;1.30;;;13.90;72.20;;;;;;5004265;28;20044;-84
2023/04/24 11:56:25;;;;;;;1.67;1.30;;;13.90;72.10;;;;;;5022033;28;20036;-82
2023/04/24 11:58:57;;;;;;;1.15;1.08;;;13.90;72.10;;;;;;5020867;28;20351;-81
2023/04/24 12:01:23;;;;;;;1.50;1.35;;;14.00;72.10;;;;;;5020906;28;20497;-81
2023/04/24 12:03:51;;;;;;;2.38;1.25;;;14.00;72.00;;;;;;5004257;28;20028;-81
2023/04/24 12:06:17;;;;;;;1.75;1.27;;;14.00;72.00;;;;;;5036793;28;20036;-82
2023/04/24 12:08:46;;;;;;;1.25;1.15;;;14.00;72.00;;;;;;5020669;28;20029;-82
2023/04/24 12:11:15;;;;;;;1.42;1.20;;;14.10;71.90;;;;;;5020105;28;20029;-81
2023/04/24 12:13:41;;;;;;;1.20;1.10;;;14.10;71.90;;;;;;5021024;28;20104;-83
2023/04/24 12:16:07;;;;;;;2.80;1.25;;;14.10;71.80;;;;;;5003443;28;20379;-82
2023/04/24 12:18:33;;;;;;;1.23;1.10;;;14.10;71.80;;;;;;5020142;28;20028;-83
2023/04/24 12:21:22;;;;;;;1.33;1.02;;;14.10;71.70;;;;;;5003143;28;20611;-84
2023/04/24 12:23:54;;;;;;;1.48;1.13;;;14.20;71.80;;;;;;5036413;28;20040;-84
2023/04/24 12:26:22;;;;;;;1.10;1.00;;;14.20;71.70;;;;;;5019921;28;20089;-82
2023/04/24 12:28:51;;;;;;;1.48;1.20;;;14.20;71.70;;;;;;5036503;28;20025;-82
2023/04/24 12:31:17;;;;;;;1.02;0.98;;;14.20;71.70;;;;;;5036061;28;20128;-82
2023/04/24 12:33:43;;;;;;;0.90;0.90;;;14.20;71.70;;;;;;5004312;28;20454;-83
2023/04/24 12:36:12;;;;;;;1.48;1.10;;;14.20;71.70;;;;;;5035976;28;20041;-82
2023/04/24 12:38:44;;;;;;;1.83;1.10;;;14.20;71.70;;;;;;5036307;28;20027;-82
2023/04/24 12:41:12;;;;;;;1.13;1.00;;;14.20;71.70;;;;;;5018907;28;20063;-81
2023/04/24 12:43:50;;;;;;;1.52;1.20;;;14.20;71.70;;;;;;5035921;28;20048;-83
2023/04/24 12:46:16;;;;;;;1.17;1.00;;;14.30;71.80;;;;;;5036790;28;20196;-80
2023/04/24 12:48:41;;;;;;;1.80;1.02;;;14.30;71.70;;;;;;5019509;28;20535;-81
2023/04/24 12:51:07;;;;;;;0.90;0.90;;;14.30;71.70;;;;;;5019757;28;20031;-81
2023/04/24 12:53:36;;;;;;;1.10;1.00;;;14.30;71.70;;;;;;5015840;28;20089;-82